Pagrindinis puslapis
METAR-TAF:

METAR-TAF

Oro uostai :

Ilam, Iranas

platuma: 33-35-09N, ilguma: 046-24-20E, Aukštis: 1334 m

Dabartinis oras

Ataskaita buvo paskelbta 49 minutes, ne 14:00 UTC
Vėjas 10 kt iš Vakarų/Pietvakarių
Temperatūra 29°C
Drėgmė 15%
Slėgis 1018 hPa
Matomumas 10 km arba daugiau
nėra debesų žemiau 1500 m ir nėra kamuolinių lietaus debesų

METAR: OICI 191400Z 25010KT CAVOK 29/M00 Q1018 A3006

Laikas: 19:19 (14:49 UTC)

Prognozė

Ataskaita buvo paskelbta 3 valandos ir 49 minutes, ne 11:00 UTC
Prognozė galioja nuo 19 metu 12 UTC su 20 metu 18 UTC
Vėjas 6 kt iš Vakarų
Matomumas 10 km arba daugiau
nėra debesų žemiau 1500 m ir nėra kamuolinių lietaus debesų
Laikinai
nuo 19 metu 12 UTC su 19 metu 15 UTC
Vėjas 22 kt iš Vakarų
Matomumas: 5000 m
Smėlis
Laikinai
nuo 20 metu 12 UTC su 20 metu 15 UTC
Vėjas 20 kt iš Vakarų
Matomumas: 5000 m
Smėlis

TAF: OICI 191100Z 1912/2018 28006KT CAVOK TEMPO 1912/1915 28022KT 5000 SA NSC TEMPO 2012/2015 27020KT 5000 SA NSC

Orai ataskaitas ir orų prognozės (METAR, TAF).

turimą stotys yra geltonos ir raudonos taškus žemėlapyje.

Perkelti pele per norėdami pamatyti stoties vardą.

Tada spustelėkite, norėdami matyti oro stebėjimo ir prognozės.

Norėdami pakeisti žemėlapį: spustelėkite ant žalios mygtukų su juodo kryžiaus žemyn,; žalią mygtuką su brūkšneliu, jei norite nutolinti; arba žalių rodyklių gretimoms žemėlapius.


METAR-TAF: